アタテュルク国際空港(イスタンブル)の過去48時間の天気

アタテュルク国際空港(イスタンブル) (Istanbul / Ataturk)

現在時刻: 1/23 06:27 +03 (1/23 03:27 UTC) 以下の時間は現地時間です。

過去48時間のMETAR気象情報
時間 風向 風速(m/s) 視程 気温(℃) 湿度(%) 気圧(hPa) 天気現象
23 05:50 西 7 10km以上 7 81 1021
23 05:20 西南西 6 10km以上 8 76 1020
23 04:50 西南西 7 10km以上 8 76 1020
23 04:20 西南西 6 10km以上 7 76 1020
23 03:50 南西 7 10km以上 7 76 1021
23 03:20 南西 7 10km以上 7 70 1021
23 02:50 南西 6 10km以上 8 71 1021
23 02:20 西南西 8 10km以上 7 76 1021
23 01:50 南西 8 10km以上 7 76 1021
23 01:20 南西 7 10km以上 7 81 1022
23 00:50 南西 7 10km以上 7 76 1022
23 00:20 南西 6 10km以上 7 70 1022
22 23:50 南西 7 10km以上 7 76 1023
22 23:20 南西 7 10km以上 7 76 1023
22 22:50 南西 6 10km以上 7 76 1023
22 22:20 南西 6 10km以上 7 76 1023
22 21:50 南西 6 10km以上 7 76 1024
22 21:20 南西 5 10km以上 6 81 1024
22 20:50 南西 6 10km以上 6 81 1024
22 20:20 南西 5 10km以上 6 81 1025
22 19:50 南西 5 10km以上 6 81 1025
22 19:20 南西 5 10km以上 6 76 1025
22 18:50 南西 4 10km以上 6 70 1026
22 18:20 南西 3 10km以上 5 75 1026
22 17:50 西 4 10km以上 6 70 1027
22 17:20 西南西 5 10km以上 6 70 1027
22 16:50 西南西 5 10km以上 6 70 1027
22 16:20 西南西 5 10km以上 6 70 1027
22 15:50 西南西 5 10km以上 6 70 1028
22 15:20 西南西 5 10km以上 7 66 1028
22 14:50 南西 5 10km以上 7 66 1029
22 14:20 南西 4 10km以上 6 70 1029
22 13:50 南西 5 10km以上 6 70 1030
22 13:20 南西 5 10km以上 6 65 1030
22 12:50 南西 4 10km以上 6 65 1031
22 12:20 南西 4 10km以上 6 65 1032
22 11:50 西南西 4 10km以上 6 65 1032
22 11:20 西南西 3 10km以上 5 65 1032
22 10:50 西南西 2 10km以上 5 65 1033
22 10:20 2 10km以上 4 65 1033
22 09:50 北北西 2 10km以上 2 81 1033
22 09:20 2 10km以上 1 80 1033
22 08:50 北北西 3 10km以上 -1 86 1033
22 08:20 北北西 3 10km以上 -1 86 1033
22 07:50 3 10km以上 -2 86 1033
22 07:20 3 10km以上 -1 86 1033
22 06:50 3 10km以上 -2 86 1033
22 06:20 北北西 4 10km以上 -1 86 1033
22 05:50 北北西 4 10km以上 -1 86 1034
22 05:20 北北西 4 10km以上 -1 86 1034
22 04:50 北北西 3 10km以上 -1 86 1034
22 04:20 3 10km以上 -1 93 1034
22 03:50 北北西 3 10km以上 0 86 1034
22 03:20 3 10km以上 -1 93 1035
22 02:50 北北西 4 10km以上 0 86 1035
22 02:20 北西 3 10km以上 1 80 1035
22 01:50 北西 3 10km以上 1 80 1035
22 01:20 3 10km以上 1 80 1036
22 00:50 3 10km以上 2 81 1036
22 00:20 北北西 4 10km以上 1 86 1036
21 23:50 北北西 4 10km以上 2 81 1036
21 23:20 北西 4 10km以上 3 75 1037
21 22:50 北西 3 10km以上 4 70 1037
21 22:20 北西 2 10km以上 4 70 1037
21 21:50 北西 2 10km以上 4 70 1037
21 21:20 3 10km以上 4 65 1037
21 20:50 4 10km以上 4 65 1037
21 20:20 3 10km以上 4 65 1038
21 19:50 5 10km以上 4 65 1038
21 19:20 北北西 5 10km以上 4 65 1038
21 18:50 4 10km以上 4 70 1038
21 18:20 北北西 3 10km以上 4 70 1038
21 17:50 北北西 4 10km以上 4 65 1038
21 17:20 6 10km以上 4 65 1038
21 16:50 6 10km以上 4 70 1038
21 16:20 7 10km以上 5 61 1038
21 15:50 北北西 6 10km以上 5 61 1038
21 15:20 北北西 7 10km以上 4 65 1038
21 14:50 北北西 6 10km以上 4 65 1039
21 14:20 北北西 6 10km以上 4 70 1039
21 13:50 北北西 5 10km以上 4 70 1039
21 13:20 北北西 5 10km以上 4 70 1039
21 12:50 北北西 5 10km以上 4 70 1039
21 12:20 北北西 5 10km以上 4 65 1040
21 11:50 北北西 6 10km以上 3 70 1040
21 11:20 北北西 6 10km以上 3 70 1040
21 10:50 7 10km以上 3 70 1040
21 10:20 北北西 6 10km以上 3 75 1040
21 09:50 北北西 5 10km以上 3 75 1040
21 09:20 北北西 5 10km以上 3 70 1040
21 08:50 北北西 6 10km以上 3 70 1040
21 08:20 北北西 7 10km以上 3 70 1040
21 07:50 7 10km以上 3 70 1040
21 07:20 8 10km以上 3 70 1040
21 06:50 7 10km以上 3 65 1040
LTBA 230250Z 26013KT 9999 FEW015 07/04 Q1021 NOSIG RMK RWY17L 26009KT RWY05 28014KT RWY23 31006KT 260V340
LTBA 230220Z 25012KT 9999 FEW015 08/04 Q1020 NOSIG RMK RWY17L 25012KT RWY05 27014KT RWY23 26013KT
LTBA 230150Z 24014KT CAVOK 08/04 Q1020 NOSIG RMK RWY17L 24013KT RWY05 26014KT RWY23 25013KT
LTBA 230120Z 24012KT CAVOK 07/03 Q1020 NOSIG RMK RWY17L 24010KT RWY05 25012KT RWY23 25013KT
LTBA 230050Z 23014KT CAVOK 07/03 Q1021 NOSIG RMK RWY17L 23014KT RWY05 24012KT RWY23 25015KT
LTBA 230020Z 23014KT CAVOK 07/02 Q1021 NOSIG RMK RWY17L 22015KT RWY05 25013KT RWY23 25014KT
LTBA 222350Z 23012KT CAVOK 08/03 Q1021 NOSIG RMK RWY17L 23011KT RWY05 25013KT RWY23 25013KT
LTBA 222320Z 24016KT CAVOK 07/03 Q1021 NOSIG RMK RWY17L 24013KT RWY05 25016KT RWY23 25014KT
LTBA 222250Z 23015KT CAVOK 07/03 Q1021 NOSIG RMK RWY17L 23010KT RWY05 25012KT RWY23 24013KT
LTBA 222220Z 23013KT CAVOK 07/04 Q1022 NOSIG RMK RWY17L 23008KT RWY05 25012KT RWY23 25011KT
LTBA 222150Z 23013KT CAVOK 07/03 Q1022 NOSIG RMK RWY17L 23010KT RWY05 25013KT RWY23 24012KT
LTBA 222120Z 23011KT CAVOK 07/02 Q1022 NOSIG RMK RWY17L 23008KT RWY05 25010KT RWY23 24013KT
LTBA 222050Z 23013KT CAVOK 07/03 Q1023 NOSIG RMK RWY17L 23008KT RWY05 24011KT RWY23 24010KT
LTBA 222020Z 22014KT CAVOK 07/03 Q1023 NOSIG RMK RWY17L 23013KT RWY05 24014KT RWY23 24012KT
LTBA 221950Z 22012KT CAVOK 07/03 Q1023 NOSIG RMK RWY17L 22012KT RWY05 23011KT RWY23 23012KT
LTBA 221920Z 22011KT CAVOK 07/03 Q1023 NOSIG RMK RWY17L 22010KT RWY05 23010KT RWY23 23012KT
LTBA 221850Z 22011KT CAVOK 07/03 Q1024 NOSIG RMK RWY17L 22011KT RWY05 23011KT RWY23 23011KT
LTBA 221820Z 22010KT CAVOK 06/03 Q1024 NOSIG RMK RWY17L 22010KT RWY05 24010KT RWY23 24011KT
LTBA 221750Z 22011KT CAVOK 06/03 Q1024 NOSIG RMK RWY17L 22009KT RWY05 23011KT RWY23 22007KT
LTBA 221720Z 22010KT CAVOK 06/03 Q1025 NOSIG RMK RWY17L 22010KT RWY05 24008KT RWY23 23007KT
LTBA 221650Z 22010KT CAVOK 06/03 Q1025 NOSIG RMK RWY17L 22010KT RWY05 23009KT RWY23 23009KT
LTBA 221620Z 22010KT CAVOK 06/02 Q1025 NOSIG RMK RWY17L 21007KT RWY05 23009KT RWY23 23007KT
LTBA 221550Z 22008KT CAVOK 06/01 Q1026 NOSIG RMK RWY17L 22006KT RWY05 24007KT RWY23 23006KT
LTBA 221520Z 22006KT CAVOK 05/01 Q1026 NOSIG RMK RWY17L 21005KT RWY05 24006KT RWY23 24008KT
LTBA 221450Z 26008KT CAVOK 06/01 Q1027 NOSIG RMK RWY17L 25007KT RWY05 27009KT RWY23 27010KT
LTBA 221420Z 25009KT CAVOK 06/01 Q1027 NOSIG RMK RWY17L 26010KT RWY05 27010KT RWY23 26011KT
LTBA 221350Z 25010KT 220V290 CAVOK 06/01 Q1027 NOSIG RMK RWY17L 23010KT RWY05 26010KT RWY23 26012KT
LTBA 221320Z 24010KT CAVOK 06/01 Q1027 NOSIG RMK RWY17L 23011KT RWY05 26010KT RWY23 26011KT
LTBA 221250Z 25010KT CAVOK 06/01 Q1028 NOSIG RMK RWY17L 23010KT 200V260 RWY05 27010KT RWY23 26011KT
LTBA 221220Z 24009KT CAVOK 07/01 Q1028 NOSIG RMK RWY17L 23010KT RWY05 25009KT RWY23 26011KT
LTBA 221150Z 23009KT 200V260 CAVOK 07/01 Q1029 NOSIG RMK RWY17L 23010KT RWY05 24008KT RWY23 25009KT
LTBA 221120Z 23008KT 190V270 CAVOK 06/01 Q1029 NOSIG RMK RWY17L 22009KT 190V250 RWY05 25008KT RWY23 24009KT
LTBA 221050Z 23009KT CAVOK 06/01 Q1030 NOSIG RMK RWY17L 22011KT RWY05 25008KT RWY23 25011KT
LTBA 221020Z 22009KT 190V260 CAVOK 06/00 Q1030 NOSIG RMK RWY17L 21010KT 190V250 RWY05 25008KT RWY23 24010KT
LTBA 220950Z 23008KT 200V260 CAVOK 06/M00 Q1031 NOSIG RMK RWY17L 23008KT 200V260 RWY05 25008KT RWY23 24009KT
LTBA 220920Z 23008KT CAVOK 06/M00 Q1032 NOSIG RMK RWY17L 22008KT 200V260 RWY05 26007KT RWY23 24008KT
LTBA 220850Z 24007KT CAVOK 06/M00 Q1032 NOSIG RMK RWY17L 24007KT RWY05 25005KT 220V290 RWY23 25007KT
LTBA 220820Z 24006KT 220V280 CAVOK 05/M01 Q1032 NOSIG RMK RWY17L 23005KT 180V260 RWY05 27006KT RWY23 26006KT
LTBA 220750Z 24004KT 210V280 CAVOK 05/M01 Q1033 NOSIG RMK RWY17L 22004KT 180V250 RWY05 27004KT 230V310 RWY23 25003KT 220V280
LTBA 220720Z 36003KT CAVOK 04/M02 Q1033 NOSIG RMK RWY17L VRB01KT RWY05 35002KT RWY23 VRB02KT
LTBA 220650Z 34003KT CAVOK 02/M01 Q1033 NOSIG RMK RWY17L 29001KT RWY05 35003KT 320V020 RWY23 33003KT
LTBA 220620Z 36004KT CAVOK 01/M02 Q1033 NOSIG RMK RWY17L VRB02KT RWY05 35005KT 330V050 RWY23 34004KT
LTBA 220550Z 33005KT CAVOK M01/M03 Q1033 NOSIG RMK RWY17L 33004KT RWY05 35005KT 330V050 RWY23 34005KT
LTBA 220520Z 33006KT CAVOK M01/M03 Q1033 NOSIG RMK RWY17L 32004KT RWY05 35006KT RWY23 33006KT
LTBA 220450Z 35006KT CAVOK M02/M04 Q1033 NOSIG RMK RWY17L 34004KT RWY05 36004KT RWY23 33005KT
LTBA 220420Z 36005KT CAVOK M01/M03 Q1033 NOSIG RMK RWY17L 36004KT RWY05 01004KT 350V050 RWY23 VRB04KT
LTBA 220350Z 35005KT CAVOK M02/M04 Q1033 NOSIG RMK RWY17L 34004KT RWY05 36005KT 320V050 RWY23 34005G16KT 210V360
LTBA 220320Z 34007KT CAVOK M01/M03 Q1033 NOSIG RMK RWY17L 34005KT RWY05 36006KT RWY23 34005KT
LTBA 220250Z 34007KT CAVOK M01/M03 Q1034 NOSIG RMK RWY17L 34004KT RWY05 35006KT RWY23 33006KT
LTBA 220220Z 34007KT CAVOK M01/M03 Q1034 NOSIG RMK RWY17L 35004KT RWY05 35006KT RWY23 34004KT
LTBA 220150Z 34006KT CAVOK M01/M03 Q1034 NOSIG RMK RWY17L 34006KT RWY05 35006KT RWY23 34004KT
LTBA 220120Z 35005KT CAVOK M01/M02 Q1034 NOSIG RMK RWY17L 34005KT RWY05 35006KT RWY23 33004KT
LTBA 220050Z 34006KT CAVOK M00/M02 Q1034 NOSIG RMK RWY17L 34005KT RWY05 36005KT RWY23 33004KT
LTBA 220020Z 35006KT CAVOK M01/M02 Q1035 NOSIG RMK RWY17L 34005KT RWY05 36005KT RWY23 33004KT
LTBA 212350Z 34007KT CAVOK M00/M02 Q1035 NOSIG RMK RWY17L 34005KT RWY05 35007KT RWY23 34005KT
LTBA 212320Z 32006KT CAVOK 01/M02 Q1035 NOSIG RMK RWY17L 31005KT RWY05 34005KT 320V050 RWY23 33005G17KT 310V030
LTBA 212250Z 32005KT CAVOK 01/M02 Q1035 NOSIG RMK RWY17L 33005KT RWY05 34006KT RWY23 33006KT
LTBA 212220Z 35005KT CAVOK 01/M02 Q1036 NOSIG RMK RWY17L 34006KT RWY05 36004KT RWY23 33004KT
LTBA 212150Z 36006KT CAVOK 02/M01 Q1036 NOSIG RMK RWY17L 34007KT RWY05 01005KT RWY23 33004KT
LTBA 212120Z 34007KT CAVOK 01/M01 Q1036 NOSIG RMK RWY17L 34005KT RWY05 35006KT RWY23 33005KT
LTBA 212050Z 33007KT CAVOK 02/M01 Q1036 NOSIG RMK RWY17L 32006KT RWY05 35006KT RWY23 33006KT
LTBA 212020Z 32008KT 9999 SCT036 03/M01 Q1037 NOSIG RMK RWY17L 33005KT RWY05 34007KT RWY23 34006KT
LTBA 211950Z 32005KT 9999 BKN035 04/M01 Q1037 NOSIG RMK RWY17L 33003KT 300V360 RWY05 35004KT 320V030 RWY23 VRB05KT
LTBA 211920Z 32004KT 9999 BKN030 04/M01 Q1037 NOSIG RMK RWY17L 34003KT 300V010 RWY05 34005KT RWY23 VRB03KT
LTBA 211850Z 32004KT 9999 BKN031 04/M01 Q1037 NOSIG RMK RWY17L 32003KT 290V360 RWY05 34004KT 320V030 RWY23 01004KT 340V130
LTBA 211820Z 35006KT 9999 BKN030 04/M02 Q1037 NOSIG RMK RWY17L 33006KT RWY05 01005KT RWY23 01005KT 330V030
LTBA 211750Z 35007KT 9999 BKN030 04/M02 Q1037 NOSIG RMK RWY17L 01006KT RWY05 03005KT RWY23 01005KT 340V040
LTBA 211720Z 35006KT 9999 BKN030 04/M02 Q1038 NOSIG RMK RWY17L 36006KT 330V030 RWY05 01006KT RWY23 02005KT 340V060
LTBA 211650Z 35010KT 9999 BKN030 04/M02 Q1038 NOSIG RMK RWY17L 36008KT RWY05 36008KT RWY23 36008KT 330V030
LTBA 211620Z 34009KT 9999 BKN030 04/M02 Q1038 NOSIG RMK RWY17L 33008KT 310V010 RWY05 36009KT RWY23 36010KT
LTBA 211550Z 35007KT 9999 BKN030 04/M01 Q1038 NOSIG RMK RWY17L 34007KT 310V010 RWY05 01007KT RWY23 36006KT 290V060
LTBA 211520Z 33006KT 9999 BKN030 04/M01 Q1038 NOSIG RMK RWY17L 34007KT 310V020 RWY05 35005KT 330V030 RWY23 35006KT 320V030
LTBA 211450Z 34007KT 9999 BKN030 04/M02 Q1038 NOSIG RMK RWY17L 34008KT RWY05 01006KT RWY23 36008KT
LTBA 211420Z 36011KT 9999 BKN030 04/M02 Q1038 NOSIG RMK RWY17L 01009KT RWY05 36011KT RWY23 35011KT
LTBA 211350Z 35011KT 9999 BKN030 04/M01 Q1038 NOSIG RMK RWY17L 01010KT RWY05 01010KT RWY23 36009KT
LTBA 211320Z 35013KT 9999 BKN030 05/M02 Q1038 NOSIG RMK RWY17L 35011KT 320V040 RWY05 01011KT RWY23 01011KT
LTBA 211250Z 34012KT 9999 BKN025 05/M02 Q1038 NOSIG RMK RWY17L 35011KT 320V020 RWY05 01010KT 330V030 RWY23 36010KT 320V060
LTBA 211220Z 34014KT 9999 BKN025 04/M02 Q1038 NOSIG RMK RWY17L 33013KT RWY05 35011KT RWY23 35011KT 330V030
LTBA 211150Z 34012KT 9999 BKN025 04/M02 Q1039 NOSIG RMK RWY17L 34012KT 310V010 RWY05 35012KT RWY23 35010KT
LTBA 211120Z 33011KT 9999 BKN025 04/M01 Q1039 NOSIG RMK RWY17L 34011KT 310V010 RWY05 34010KT 310V010 RWY23 36010KT 330V030
LTBA 211050Z 33010KT 9999 FEW020 BKN030 04/M01 Q1039 NOSIG RMK RWY17L 33010KT RWY05 34008KT 320V020 RWY23 35009KT
LTBA 211020Z 33009KT 9999 FEW020 BKN030 04/M01 Q1039 NOSIG RMK RWY17L 33010KT 300V360 RWY05 36009KT RWY23 35008KT
LTBA 210950Z 33009KT 9999 FEW020 BKN030 04/M01 Q1039 NOSIG RMK RWY17L 34010KT RWY05 36008KT 330V030 RWY23 01008KT
LTBA 210920Z 34009KT 9999 FEW020 BKN030 04/M02 Q1040 NOSIG RMK RWY17L 35008KT RWY05 36009KT RWY23 01009KT 340V040
LTBA 210850Z 34012KT 9999 FEW020 BKN030 03/M02 Q1040 NOSIG RMK RWY17L 35009KT RWY05 36011KT 340V040 RWY23 36010KT 340V060
LTBA 210820Z 34012KT 9999 FEW020 BKN030 03/M02 Q1040 NOSIG RMK RWY17L 34011KT RWY05 36011KT RWY23 35012KT 310V020
LTBA 210750Z 35013KT 9999 FEW020 BKN030 03/M02 Q1040 NOSIG RMK RWY17L 35012KT RWY05 36012KT RWY23 35012KT
LTBA 210720Z 33011KT 9999 FEW020 BKN030 03/M01 Q1040 NOSIG RMK RWY17L 34010KT RWY05 35009KT RWY23 36011KT 330V030
LTBA 210650Z 34009KT 9999 FEW020 BKN030 03/M01 Q1040 NOSIG RMK RWY17L 34007KT RWY05 36008KT RWY23 VRB09KT
LTBA 210620Z 33010KT 9999 BKN030 03/M02 Q1040 NOSIG RMK RWY17L 33008KT 300V360 RWY05 34011KT RWY23 35009KT 310V030
LTBA 210550Z 34012KT 9999 BKN030 03/M02 Q1040 NOSIG RMK RWY17L 34012KT RWY05 35012KT RWY23 36009KT 320V030
LTBA 210520Z 34013KT 9999 BKN030 03/M02 Q1040 NOSIG RMK RWY17L 35013KT 320V020 RWY05 36012KT 340V040 RWY23 35012KT
LTBA 210450Z 35014KT 9999 BKN030 03/M02 Q1040 NOSIG RMK RWY17L 35010KT RWY05 36012KT RWY23 35011KT 330V030
LTBA 210420Z 35016KT 9999 BKN030 03/M02 Q1040 NOSIG RMK RWY17L 35011KT 310V020 RWY05 36014KT RWY23 35014KT
LTBA 210350Z 35013KT 9999 BKN030 03/M03 Q1040 NOSIG RMK RWY17L 36009KT 320V020 RWY05 01012KT RWY23 36012KT